createdAt,value
2018-11-03T00:01:11.836Z,64.95
2018-11-03T00:03:40.163Z,63.74
2018-11-03T00:06:08.507Z,62.89
2018-11-03T00:08:37.056Z,63.27
2018-11-03T00:11:05.715Z,63.06
2018-11-03T00:13:34.622Z,63.46
2018-11-03T00:16:02.986Z,63.38
2018-11-03T00:18:31.301Z,63.42
2018-11-03T00:20:59.779Z,63.50
2018-11-03T00:23:28.161Z,62.88
2018-11-03T00:25:56.527Z,64.78
2018-11-03T00:28:25.011Z,64.58
2018-11-03T00:30:54.646Z,63.98
2018-11-03T00:33:23.138Z,65.11
2018-11-03T00:35:51.533Z,64.63
2018-11-03T00:38:20.368Z,64.93
2018-11-03T00:40:49.275Z,65.60
2018-11-03T00:43:17.774Z,65.56
2018-11-03T00:45:46.168Z,64.76
2018-11-03T00:48:14.559Z,64.78
2018-11-03T00:50:43.395Z,63.81
2018-11-03T00:53:12.210Z,63.32
2018-11-03T00:58:18.466Z,63.08
2018-11-03T01:00:48.108Z,63.58
2018-11-03T01:03:16.499Z,64.49
2018-11-03T01:05:44.818Z,64.79
2018-11-03T01:08:13.167Z,66.00
2018-11-03T01:10:41.583Z,66.80
2018-11-03T01:13:09.910Z,67.04
2018-11-03T01:15:38.239Z,66.37
2018-11-03T01:18:06.666Z,65.94
2018-11-03T01:20:35.050Z,64.28
2018-11-03T01:23:03.374Z,65.34
2018-11-03T01:25:31.766Z,64.72
2018-11-03T01:28:00.135Z,66.22
2018-11-03T01:30:28.467Z,64.15
2018-11-03T01:32:56.779Z,66.09
2018-11-03T01:35:25.099Z,65.23
2018-11-03T01:37:53.431Z,64.83
2018-11-03T01:40:21.744Z,65.63
2018-11-03T01:42:50.095Z,66.61
2018-11-03T01:45:19.129Z,66.12
2018-11-03T01:47:47.470Z,64.56
2018-11-03T01:50:15.792Z,65.30
2018-11-03T01:52:44.114Z,65.22
2018-11-03T01:55:12.430Z,64.57
2018-11-03T01:57:40.735Z,65.65
2018-11-03T02:00:09.819Z,66.03
2018-11-03T02:02:38.360Z,66.84
2018-11-03T02:05:07.348Z,64.74
2018-11-03T02:07:35.698Z,65.38
2018-11-03T02:10:04.075Z,66.21
2018-11-03T02:12:32.400Z,64.29
2018-11-03T02:15:00.735Z,63.37
2018-11-03T02:17:29.073Z,63.45
2018-11-03T02:19:57.540Z,65.81
2018-11-03T02:22:25.867Z,63.64
2018-11-03T02:24:54.182Z,62.57
2018-11-03T02:27:22.513Z,63.16
2018-11-03T02:29:50.835Z,64.38
2018-11-03T02:32:19.140Z,63.47
2018-11-03T02:34:47.491Z,64.27
2018-11-03T02:37:15.808Z,63.45
2018-11-03T02:39:44.115Z,64.15
2018-11-03T02:42:12.440Z,64.89
2018-11-03T02:44:40.750Z,64.27
2018-11-03T02:47:09.068Z,65.52
2018-11-03T02:49:37.427Z,65.74
2018-11-03T02:52:05.799Z,64.88
2018-11-03T02:54:34.184Z,63.69
2018-11-03T02:57:02.516Z,63.50
2018-11-03T02:59:30.838Z,63.50
2018-11-03T03:01:59.182Z,64.43
2018-11-03T03:04:27.484Z,64.35
2018-11-03T03:06:55.855Z,63.44
2018-11-03T03:09:24.203Z,63.87
2018-11-03T03:11:52.539Z,63.74
2018-11-03T03:14:20.855Z,63.32
2018-11-03T03:16:49.235Z,65.28
2018-11-03T03:19:17.610Z,66.30
2018-11-03T03:21:46.962Z,64.10
2018-11-03T03:24:15.325Z,65.37
2018-11-03T03:26:43.665Z,64.95
2018-11-03T03:29:12.074Z,64.68
2018-11-03T03:31:40.299Z,65.25
2018-11-03T03:34:08.603Z,66.04
2018-11-03T03:36:36.979Z,66.16
2018-11-03T03:39:08.071Z,64.82
2018-11-03T03:41:36.447Z,63.60
2018-11-03T03:44:05.544Z,65.00
2018-11-03T03:46:33.860Z,65.40
2018-11-03T03:49:02.171Z,65.87
2018-11-03T03:51:30.624Z,64.02
2018-11-03T03:53:59.060Z,65.75
2018-11-03T03:56:27.389Z,64.46
2018-11-03T03:58:55.743Z,63.59
2018-11-03T04:01:24.063Z,64.66
2018-11-03T04:03:52.383Z,64.32
2018-11-03T04:06:20.680Z,65.15
2018-11-03T04:08:49.635Z,64.84
2018-11-03T04:11:17.947Z,64.47
2018-11-03T04:13:46.308Z,64.08
2018-11-03T04:16:14.632Z,64.28
2018-11-03T04:18:42.935Z,64.42
2018-11-03T04:21:15.623Z,64.90
2018-11-03T04:23:43.943Z,66.34
2018-11-03T04:26:12.256Z,64.91
2018-11-03T04:28:40.738Z,64.62
2018-11-03T04:31:09.057Z,65.76
2018-11-03T04:33:37.365Z,64.54
2018-11-03T04:36:05.673Z,63.41
2018-11-03T04:38:33.987Z,63.22
2018-11-03T04:41:02.303Z,63.04
2018-11-03T04:43:30.631Z,63.06
2018-11-03T04:45:59.030Z,63.15
2018-11-03T04:48:27.335Z,64.93
2018-11-03T04:50:55.667Z,64.55
2018-11-03T04:53:23.999Z,63.71
2018-11-03T04:55:52.324Z,65.44
2018-11-03T04:58:20.638Z,65.65
2018-11-03T05:00:49.015Z,65.91
2018-11-03T05:03:17.316Z,65.36
2018-11-03T05:05:45.656Z,64.23
2018-11-03T05:08:13.983Z,63.48
2018-11-03T05:10:42.303Z,63.38
2018-11-03T05:13:11.015Z,64.45
2018-11-03T05:15:39.340Z,63.76
2018-11-03T05:18:07.655Z,63.58
2018-11-03T05:20:36.021Z,63.44
2018-11-03T05:23:04.414Z,63.86
2018-11-03T05:25:32.747Z,63.91
2018-11-03T05:28:01.144Z,64.67
2018-11-03T05:30:29.458Z,63.88
2018-11-03T05:32:57.817Z,63.60
2018-11-03T05:35:26.174Z,63.46
2018-11-03T05:37:54.432Z,63.14
2018-11-03T05:40:22.735Z,63.76
2018-11-03T05:42:51.047Z,64.23
2018-11-03T05:45:19.364Z,64.41
2018-11-03T05:47:47.687Z,64.79
2018-11-03T05:50:16.003Z,64.56
2018-11-03T05:52:44.330Z,63.83
2018-11-03T05:55:12.659Z,63.57
2018-11-03T05:57:40.999Z,64.59
2018-11-03T06:00:09.993Z,65.52
2018-11-03T06:02:38.464Z,63.26
2018-11-03T06:05:06.915Z,62.71
2018-11-03T06:07:35.329Z,64.12
2018-11-03T06:10:03.901Z,64.83
2018-11-03T06:12:32.283Z,64.77
2018-11-03T06:15:00.799Z,64.26
2018-11-03T06:17:29.244Z,64.03
2018-11-03T06:19:57.698Z,63.56
2018-11-03T06:22:26.109Z,63.71
2018-11-03T06:24:54.627Z,63.18
2018-11-03T06:27:23.036Z,63.26
2018-11-03T06:29:51.546Z,63.75
2018-11-03T06:32:20.022Z,63.84
2018-11-03T06:34:48.401Z,62.99
2018-11-03T06:37:16.907Z,64.05
2018-11-03T06:39:45.296Z,63.89
2018-11-03T06:42:13.672Z,63.37
2018-11-03T06:44:42.067Z,63.04
2018-11-03T06:47:10.678Z,63.40
2018-11-03T06:49:39.274Z,63.63
2018-11-03T06:52:07.878Z,64.56
2018-11-03T06:54:36.151Z,63.86
2018-11-03T06:57:04.603Z,63.67
2018-11-03T06:59:33.122Z,64.55
2018-11-03T07:02:01.503Z,65.08
2018-11-03T07:04:29.991Z,63.94
2018-11-03T07:06:58.355Z,63.77
2018-11-03T07:09:26.837Z,64.56
2018-11-03T07:11:55.364Z,64.07
2018-11-03T07:14:23.838Z,64.99
2018-11-03T07:16:52.302Z,64.28
2018-11-03T07:19:20.699Z,63.76
2018-11-03T07:21:49.344Z,64.16
2018-11-03T07:24:17.704Z,64.23
2018-11-03T07:26:46.159Z,64.09
2018-11-03T07:29:14.651Z,63.38
2018-11-03T07:31:43.132Z,63.20
2018-11-03T07:34:11.771Z,63.61
2018-11-03T07:36:40.339Z,63.40
2018-11-03T07:39:09.384Z,63.08
2018-11-03T07:41:37.865Z,62.82
2018-11-03T07:44:07.142Z,62.31
2018-11-03T07:46:35.659Z,61.88
2018-11-03T07:49:04.429Z,62.50
2018-11-03T07:51:32.703Z,62.99
2018-11-03T07:54:01.285Z,63.71
2018-11-03T07:56:29.771Z,63.27
2018-11-03T07:58:58.334Z,63.34
2018-11-03T08:01:26.794Z,63.06
2018-11-03T08:03:55.226Z,62.76
2018-11-03T08:06:23.680Z,63.22
2018-11-03T08:08:52.142Z,62.00
2018-11-03T08:11:20.512Z,63.16
2018-11-03T08:13:49.011Z,63.60
2018-11-03T08:16:17.425Z,62.96
2018-11-03T08:18:45.871Z,64.02
2018-11-03T08:21:14.270Z,62.16
2018-11-03T08:23:42.749Z,60.73
2018-11-03T08:26:11.163Z,61.22
2018-11-03T08:28:39.615Z,58.18
2018-11-03T08:31:08.177Z,56.20
2018-11-03T08:33:36.612Z,56.42
2018-11-03T08:36:05.190Z,55.16
2018-11-03T08:38:33.818Z,53.40
2018-11-03T08:41:02.317Z,53.89
2018-11-03T08:43:30.760Z,52.67
2018-11-03T08:45:59.285Z,50.57
2018-11-03T08:48:27.747Z,49.18
2018-11-03T08:50:56.217Z,49.65
2018-11-03T08:53:24.814Z,50.83
2018-11-03T08:55:53.312Z,49.40
2018-11-03T08:58:21.750Z,49.00
2018-11-03T09:00:50.200Z,46.70
2018-11-03T09:03:19.468Z,42.77
2018-11-03T09:05:47.918Z,38.33
2018-11-03T09:08:16.369Z,33.72
2018-11-03T09:10:44.788Z,33.06
2018-11-03T09:13:13.296Z,32.67
2018-11-03T09:15:41.775Z,34.41
2018-11-03T09:18:10.194Z,37.37
2018-11-03T09:20:39.613Z,35.47
2018-11-03T09:23:08.144Z,33.72
2018-11-03T09:25:36.467Z,33.01
2018-11-03T09:28:04.977Z,29.72
2018-11-03T09:30:33.407Z,29.03
2018-11-03T09:33:01.787Z,27.78
2018-11-03T09:35:30.212Z,28.66
2018-11-03T09:37:58.650Z,30.79
2018-11-03T09:40:27.103Z,30.70
2018-11-03T09:42:55.903Z,30.42
2018-11-03T09:45:24.275Z,30.79
2018-11-03T09:47:52.734Z,27.93
2018-11-03T09:50:21.182Z,28.90
2018-11-03T09:52:49.700Z,27.66
2018-11-03T09:55:19.120Z,26.70
2018-11-03T09:57:47.695Z,27.49
2018-11-03T10:00:17.444Z,28.82
2018-11-03T10:02:45.886Z,28.82
2018-11-03T10:05:14.979Z,30.17
2018-11-03T10:07:43.464Z,28.89
2018-11-03T10:10:14.719Z,28.78
2018-11-03T10:12:43.266Z,29.92
2018-11-03T10:15:12.769Z,30.08
2018-11-03T10:17:41.251Z,31.41
2018-11-03T10:20:09.992Z,33.41
2018-11-03T10:22:38.602Z,34.36
2018-11-03T10:25:10.388Z,34.12
2018-11-03T10:27:38.896Z,35.95
2018-11-03T10:30:08.624Z,35.85
2018-11-03T10:32:37.392Z,37.32
2018-11-03T10:35:06.097Z,35.94
2018-11-03T10:37:34.574Z,34.48
2018-11-03T10:40:03.039Z,34.94
2018-11-03T10:42:31.441Z,34.54
2018-11-03T10:44:59.975Z,33.22
2018-11-03T10:47:28.666Z,34.60
2018-11-03T10:49:57.138Z,35.76
2018-11-03T10:52:25.636Z,34.87
2018-11-03T10:54:54.244Z,34.63
2018-11-03T10:57:22.783Z,35.56
2018-11-03T10:59:51.227Z,34.02
2018-11-03T11:02:25.155Z,35.00
2018-11-03T11:04:58.932Z,35.85
2018-11-03T11:07:33.988Z,34.66
2018-11-03T11:10:07.630Z,35.36
2018-11-03T11:12:39.582Z,34.99
2018-11-03T11:15:09.171Z,36.08
2018-11-03T11:17:37.769Z,35.81
2018-11-03T11:20:07.596Z,34.36
2018-11-03T11:22:36.195Z,34.94
2018-11-03T11:25:05.265Z,34.16
2018-11-03T11:27:33.612Z,35.42
2018-11-03T11:30:02.151Z,33.96
2018-11-03T11:32:30.647Z,34.35
2018-11-03T11:34:59.151Z,34.58
2018-11-03T11:37:27.761Z,33.25
2018-11-03T11:39:56.150Z,34.46
2018-11-03T11:42:24.627Z,32.41
2018-11-03T11:44:53.081Z,32.45
2018-11-03T11:47:21.769Z,30.96
2018-11-03T11:49:50.191Z,29.35
2018-11-03T11:52:18.610Z,30.23
2018-11-03T11:54:47.034Z,28.76
2018-11-03T11:57:15.471Z,27.87
2018-11-03T11:59:43.995Z,28.10
2018-11-03T12:02:12.540Z,28.24
2018-11-03T12:04:40.891Z,28.36
2018-11-03T12:07:09.343Z,29.51
2018-11-03T12:09:37.744Z,29.09
2018-11-03T12:12:06.237Z,29.18
2018-11-03T12:14:34.635Z,28.40
2018-11-03T12:17:03.065Z,28.65
2018-11-03T12:19:31.499Z,27.91
2018-11-03T12:21:59.935Z,27.37
2018-11-03T12:24:28.455Z,27.39
2018-11-03T12:26:56.883Z,26.74
2018-11-03T12:29:25.362Z,27.09
2018-11-03T12:31:53.807Z,26.92
2018-11-03T12:34:22.307Z,25.79
2018-11-03T12:36:50.716Z,24.60
2018-11-03T12:39:19.250Z,24.72
2018-11-03T12:41:47.628Z,26.64
2018-11-03T12:44:16.087Z,27.80
2018-11-03T12:46:44.524Z,27.43
2018-11-03T12:49:12.968Z,27.21
2018-11-03T12:51:41.441Z,27.01
2018-11-03T12:54:09.870Z,26.20
2018-11-03T12:56:38.327Z,27.33
2018-11-03T12:59:06.756Z,26.59
2018-11-03T13:01:35.166Z,24.96
2018-11-03T13:04:03.729Z,26.82
2018-11-03T13:06:32.107Z,27.44
2018-11-03T13:09:00.567Z,27.89
2018-11-03T13:11:29.011Z,29.20
2018-11-03T13:13:57.603Z,30.14
2018-11-03T13:16:26.119Z,31.83
2018-11-03T13:18:54.540Z,32.59
2018-11-03T13:21:22.963Z,32.88
2018-11-03T13:23:51.399Z,31.82
2018-11-03T13:26:19.856Z,33.84
2018-11-03T13:28:48.276Z,34.37
2018-11-03T13:31:16.688Z,34.52
2018-11-03T13:33:45.084Z,34.41
2018-11-03T13:36:13.522Z,34.61
2018-11-03T13:38:41.919Z,33.63
2018-11-03T13:41:10.413Z,34.26
2018-11-03T13:43:38.814Z,34.86
2018-11-03T13:46:07.259Z,34.60
2018-11-03T13:48:35.675Z,35.53
2018-11-03T13:51:04.099Z,36.93
2018-11-03T13:53:32.619Z,36.47
2018-11-03T13:56:01.019Z,37.03
2018-11-03T13:58:29.458Z,37.02
2018-11-03T14:00:57.865Z,36.39
2018-11-03T14:03:26.394Z,36.14
2018-11-03T14:05:54.819Z,36.40
2018-11-03T14:08:23.254Z,35.70
2018-11-03T14:10:51.666Z,37.86
2018-11-03T14:13:20.176Z,38.03
2018-11-03T14:15:48.701Z,38.36
2018-11-03T14:18:17.152Z,38.53
2018-11-03T14:20:45.691Z,38.65
2018-11-03T14:23:14.123Z,38.76
2018-11-03T14:25:42.503Z,39.28
2018-11-03T14:28:10.907Z,40.37
2018-11-03T14:30:39.343Z,39.62
2018-11-03T14:33:07.780Z,40.23
2018-11-03T14:35:36.292Z,40.81
2018-11-03T14:38:04.690Z,40.66
2018-11-03T14:40:33.101Z,41.80
2018-11-03T14:43:01.464Z,41.05
2018-11-03T14:45:29.872Z,42.34
2018-11-03T14:47:58.293Z,42.71
2018-11-03T14:50:32.090Z,43.20
2018-11-03T14:53:00.829Z,43.43
2018-11-03T14:55:29.443Z,43.24
2018-11-03T14:57:57.871Z,44.23
2018-11-03T15:00:26.283Z,43.65
2018-11-03T15:02:54.664Z,44.69
2018-11-03T15:05:23.038Z,43.16
2018-11-03T15:07:51.463Z,43.99
2018-11-03T15:10:19.956Z,44.73
2018-11-03T15:12:48.297Z,43.88
2018-11-03T15:15:16.712Z,44.12
2018-11-03T15:17:45.511Z,44.79
2018-11-03T15:20:13.908Z,45.12
2018-11-03T15:22:43.158Z,44.78
2018-11-03T15:25:11.684Z,46.41
2018-11-03T15:27:40.504Z,47.36
2018-11-03T15:30:10.119Z,48.15
2018-11-03T15:32:38.855Z,48.77
2018-11-03T15:35:07.672Z,49.39
2018-11-03T15:37:35.997Z,49.89
2018-11-03T15:40:04.793Z,49.72
2018-11-03T15:42:33.216Z,51.39
2018-11-03T15:45:01.640Z,50.82
2018-11-03T15:47:30.104Z,51.15
2018-11-03T15:49:58.495Z,52.23
2018-11-03T15:52:26.963Z,50.73
2018-11-03T15:54:55.416Z,51.94
2018-11-03T15:57:23.880Z,52.57
2018-11-03T15:59:52.288Z,53.30
2018-11-03T16:02:20.743Z,53.73
2018-11-03T16:04:49.167Z,54.54
2018-11-03T16:07:17.650Z,53.41
2018-11-03T16:09:46.094Z,55.34
2018-11-03T16:12:14.685Z,55.01
2018-11-03T16:14:42.971Z,55.12
2018-11-03T16:17:11.402Z,56.23
2018-11-03T16:19:39.939Z,56.94
2018-11-03T16:22:08.323Z,56.07
2018-11-03T16:24:36.758Z,56.85
2018-11-03T16:27:05.582Z,55.78
2018-11-03T16:29:33.991Z,56.45
2018-11-03T16:32:02.485Z,57.10
2018-11-03T16:34:30.932Z,57.57
2018-11-03T16:36:59.535Z,57.53
2018-11-03T16:39:28.066Z,57.24
2018-11-03T16:41:56.595Z,57.96
2018-11-03T16:44:25.071Z,57.35
2018-11-03T16:46:53.505Z,57.07
2018-11-03T16:49:22.431Z,57.86
2018-11-03T16:51:50.883Z,58.22
2018-11-03T16:54:19.319Z,58.51
2018-11-03T16:56:47.763Z,57.98
2018-11-03T16:59:16.211Z,59.84
2018-11-03T17:01:44.692Z,58.55
2018-11-03T17:04:13.132Z,59.84
2018-11-03T17:06:41.633Z,58.52
2018-11-03T17:09:09.998Z,59.89
2018-11-03T17:11:38.503Z,60.39
2018-11-03T17:14:07.064Z,58.91
2018-11-03T17:16:35.541Z,59.77
2018-11-03T17:19:04.103Z,60.78
2018-11-03T17:21:32.543Z,60.46
2018-11-03T17:24:01.031Z,61.05
2018-11-03T17:26:29.519Z,60.77
2018-11-03T17:28:58.003Z,60.26
2018-11-03T17:31:26.551Z,59.81
2018-11-03T17:33:55.042Z,61.10
2018-11-03T17:36:23.620Z,60.76
2018-11-03T17:38:52.032Z,62.31
2018-11-03T17:41:20.426Z,61.88
2018-11-03T17:43:48.852Z,60.96
2018-11-03T17:46:17.279Z,62.06
2018-11-03T17:48:45.701Z,62.18
2018-11-03T17:51:14.135Z,62.08
2018-11-03T17:53:42.696Z,61.72
2018-11-03T17:56:11.154Z,62.40
2018-11-03T17:58:39.601Z,62.16
2018-11-03T18:01:08.255Z,62.55
2018-11-03T18:03:36.533Z,61.87
2018-11-03T18:06:05.345Z,62.11
2018-11-03T18:08:33.788Z,62.36
2018-11-03T18:11:02.303Z,63.23
2018-11-03T18:13:30.739Z,62.15
2018-11-03T18:15:59.166Z,62.57
2018-11-03T18:18:27.651Z,63.06
2018-11-03T18:20:56.069Z,62.30
2018-11-03T18:23:24.463Z,62.28
2018-11-03T18:25:52.893Z,63.14
2018-11-03T18:28:21.377Z,62.64
2018-11-03T18:30:49.723Z,63.14
2018-11-03T18:33:18.180Z,63.11
2018-11-03T18:35:46.387Z,63.99
2018-11-03T18:38:14.835Z,63.24
2018-11-03T18:40:43.249Z,63.61
2018-11-03T18:43:11.729Z,62.83
2018-11-03T18:45:40.198Z,62.37
2018-11-03T18:48:08.606Z,62.36
2018-11-03T18:50:37.040Z,62.77
2018-11-03T18:53:05.396Z,61.98
2018-11-03T18:55:33.842Z,62.22
2018-11-03T18:58:02.191Z,62.57
2018-11-03T19:00:30.719Z,61.97
2018-11-03T19:02:59.191Z,63.30
2018-11-03T19:05:27.659Z,62.98
2018-11-03T19:07:56.169Z,62.13
2018-11-03T19:10:24.732Z,62.33
2018-11-03T19:12:53.171Z,62.61
2018-11-03T19:15:21.651Z,61.89
2018-11-03T19:17:50.193Z,63.13
2018-11-03T19:20:18.523Z,62.22
2018-11-03T19:22:47.007Z,62.38
2018-11-03T19:25:15.427Z,63.68
2018-11-03T19:27:43.933Z,62.19
2018-11-03T19:30:13.476Z,62.40
2018-11-03T19:32:43.323Z,62.58
2018-11-03T19:35:11.743Z,62.53
2018-11-03T19:37:40.746Z,64.16
2018-11-03T19:40:10.408Z,63.57
2018-11-03T19:42:39.194Z,63.56
2018-11-03T19:45:07.739Z,62.46
2018-11-03T19:47:36.358Z,63.50
2018-11-03T19:50:05.677Z,64.04
2018-11-03T19:52:34.152Z,64.45
2018-11-03T19:55:02.582Z,63.06
2018-11-03T19:57:31.063Z,63.38
2018-11-03T19:59:59.484Z,63.19
2018-11-03T20:02:28.094Z,62.91
2018-11-03T20:04:56.540Z,63.06
2018-11-03T20:07:24.985Z,62.81
2018-11-03T20:09:53.564Z,64.04
2018-11-03T20:12:23.345Z,62.63
2018-11-03T20:14:52.752Z,62.30
2018-11-03T20:17:21.837Z,63.21
2018-11-03T20:19:51.452Z,61.82
2018-11-03T20:22:20.963Z,62.29
2018-11-03T20:24:49.428Z,63.32
2018-11-03T20:27:17.898Z,64.14
2018-11-03T20:29:46.479Z,62.70
2018-11-03T20:32:14.956Z,62.76
2018-11-03T20:34:43.423Z,62.24
2018-11-03T20:37:11.871Z,62.64
2018-11-03T20:39:40.372Z,61.53
2018-11-03T20:42:11.436Z,63.09
2018-11-03T20:44:39.835Z,61.19
2018-11-03T20:47:08.318Z,61.93
2018-11-03T20:49:36.795Z,61.22
2018-11-03T20:52:05.615Z,62.06
2018-11-03T20:54:34.088Z,61.84
2018-11-03T20:57:02.583Z,62.41
2018-11-03T20:59:31.026Z,62.95
2018-11-03T21:01:59.513Z,66.67
2018-11-03T21:04:27.898Z,63.71
2018-11-03T21:06:56.293Z,62.81
2018-11-03T21:09:24.691Z,62.33
2018-11-03T21:11:53.151Z,61.85
2018-11-03T21:14:21.558Z,62.21
2018-11-03T21:16:49.971Z,62.28
2018-11-03T21:19:18.411Z,62.13
2018-11-03T21:21:46.919Z,62.45
2018-11-03T21:24:15.418Z,64.66
2018-11-03T21:26:43.842Z,63.78
2018-11-03T21:29:12.283Z,64.13
2018-11-03T21:31:41.005Z,63.42
2018-11-03T21:34:09.391Z,64.04
2018-11-03T21:36:37.785Z,64.42
2018-11-03T21:39:07.971Z,64.49
2018-11-03T21:41:36.340Z,63.46
2018-11-03T21:44:04.724Z,63.47
2018-11-03T21:46:33.205Z,63.54
2018-11-03T21:49:01.612Z,64.08
2018-11-03T21:51:29.991Z,64.01
2018-11-03T21:53:58.576Z,66.09
2018-11-03T21:56:27.019Z,64.76
2018-11-03T21:58:55.487Z,64.32
2018-11-03T22:01:23.961Z,66.98
2018-11-03T22:03:52.451Z,65.28
2018-11-03T22:06:20.970Z,67.58
2018-11-03T22:08:49.334Z,66.06
2018-11-03T22:11:17.728Z,65.63
2018-11-03T22:13:46.141Z,65.58
2018-11-03T22:16:14.574Z,67.60
2018-11-03T22:18:42.980Z,67.14
2018-11-03T22:21:11.495Z,65.78
2018-11-03T22:23:39.952Z,65.83
2018-11-03T22:26:08.433Z,65.60
2018-11-03T22:28:36.889Z,64.97
2018-11-03T22:31:05.649Z,64.97
2018-11-03T22:33:33.967Z,64.98
2018-11-03T22:36:02.447Z,64.54
2018-11-03T22:38:30.839Z,64.92
2018-11-03T22:40:59.453Z,64.66
2018-11-03T22:43:28.091Z,65.54
2018-11-03T22:45:56.494Z,64.27
2018-11-03T22:48:24.915Z,64.37
2018-11-03T22:50:53.525Z,65.22
2018-11-03T22:53:21.882Z,64.87
2018-11-03T22:55:50.447Z,64.56
2018-11-03T22:58:18.935Z,65.29
2018-11-03T23:00:53.014Z,64.52
2018-11-03T23:03:21.320Z,64.76
2018-11-03T23:05:49.738Z,65.58
2018-11-03T23:08:18.176Z,65.03
2018-11-03T23:10:46.699Z,65.28
2018-11-03T23:13:15.320Z,64.82
2018-11-03T23:15:43.802Z,64.33
2018-11-03T23:18:12.463Z,64.43
2018-11-03T23:20:41.622Z,65.07
2018-11-03T23:23:10.044Z,64.12
2018-11-03T23:25:38.463Z,64.81
2018-11-03T23:28:06.829Z,64.54
2018-11-03T23:30:35.315Z,65.08
2018-11-03T23:33:03.766Z,64.35
2018-11-03T23:35:32.084Z,64.47
2018-11-03T23:38:00.498Z,64.63
2018-11-03T23:40:28.999Z,64.57
2018-11-03T23:42:57.395Z,64.50
2018-11-03T23:45:25.921Z,64.50
2018-11-03T23:47:54.315Z,64.24
2018-11-03T23:50:22.778Z,65.59
2018-11-03T23:52:51.223Z,64.60
2018-11-03T23:55:19.875Z,64.44
2018-11-03T23:57:48.235Z,65.86
